createdAt,value
2023-02-01T00:00:38.569Z,70.35
2023-02-01T00:03:06.668Z,68.11
2023-02-01T00:05:33.992Z,61.48
2023-02-01T00:08:01.401Z,62.65
2023-02-01T00:10:28.914Z,56.96
2023-02-01T00:12:56.313Z,55.79
2023-02-01T00:15:24.171Z,58.05
2023-02-01T00:17:56.075Z,54.93
2023-02-01T00:20:24.959Z,52.22
2023-02-01T00:22:52.655Z,54.92
2023-02-01T00:25:20.096Z,55.34
2023-02-01T00:27:51.449Z,60.40
2023-02-01T00:30:19.938Z,69.33
2023-02-01T00:32:47.684Z,73.77
2023-02-01T00:35:15.480Z,75.50
2023-02-01T00:37:43.018Z,75.17
2023-02-01T00:40:10.518Z,72.04
2023-02-01T00:42:37.692Z,72.73
2023-02-01T00:45:05.365Z,70.88
2023-02-01T00:47:33.016Z,72.75
2023-02-01T00:50:00.317Z,60.35
2023-02-01T00:52:28.176Z,61.96
2023-02-01T00:54:55.346Z,58.56
2023-02-01T00:57:22.532Z,57.52
2023-02-01T00:59:49.969Z,54.40
2023-02-01T01:02:17.261Z,54.57
2023-02-01T01:04:44.457Z,53.81
2023-02-01T01:07:11.986Z,52.70
2023-02-01T01:09:39.237Z,57.53
2023-02-01T01:12:06.404Z,66.86
2023-02-01T01:14:33.886Z,63.86
2023-02-01T01:17:01.111Z,64.29
2023-02-01T01:19:28.273Z,64.68
2023-02-01T01:21:55.727Z,68.27
2023-02-01T01:24:22.907Z,68.65
2023-02-01T01:26:50.371Z,71.28
2023-02-01T01:29:17.988Z,73.67
2023-02-01T01:31:45.238Z,72.36
2023-02-01T01:34:12.466Z,73.65
2023-02-01T01:36:39.933Z,74.39
2023-02-01T01:39:07.083Z,73.37
2023-02-01T01:41:34.486Z,72.72
2023-02-01T01:44:28.045Z,72.93
2023-02-01T01:46:55.323Z,72.62
2023-02-01T01:49:23.528Z,72.35
2023-02-01T01:51:52.450Z,73.37
2023-02-01T01:54:21.195Z,70.13
2023-02-01T01:56:50.097Z,73.51
2023-02-01T01:59:17.417Z,69.37
2023-02-01T02:01:44.699Z,71.37
2023-02-01T02:04:12.292Z,73.33
2023-02-01T02:06:51.361Z,72.76
2023-02-01T02:09:19.089Z,70.87
2023-02-01T02:11:46.574Z,70.75
2023-02-01T02:14:14.562Z,73.16
2023-02-01T02:16:46.572Z,72.73
2023-02-01T02:19:29.660Z,71.84
2023-02-01T02:22:15.263Z,74.02
2023-02-01T02:25:01.985Z,73.64
2023-02-01T02:27:55.719Z,74.51
2023-02-01T02:30:23.472Z,75.12
2023-02-01T02:33:09.485Z,74.71
2023-02-01T02:35:55.636Z,75.21
2023-02-01T02:38:42.537Z,73.94
2023-02-01T02:41:10.055Z,75.58
2023-02-01T02:43:58.180Z,76.61
2023-02-01T02:46:45.766Z,77.00
2023-02-01T02:49:19.074Z,77.21
2023-02-01T02:52:06.415Z,75.33
2023-02-01T02:54:51.766Z,76.55
2023-02-01T02:57:38.716Z,75.41
2023-02-01T03:00:26.536Z,75.37
2023-02-01T03:03:13.059Z,74.13
2023-02-01T03:05:45.109Z,76.16
2023-02-01T03:08:12.729Z,75.42
2023-02-01T03:10:43.207Z,74.64
2023-02-01T03:13:12.754Z,73.06
2023-02-01T03:15:45.031Z,73.64
2023-02-01T03:18:17.983Z,68.10
2023-02-01T03:20:46.246Z,74.17
2023-02-01T03:23:13.618Z,73.22
2023-02-01T03:25:41.536Z,70.00
2023-02-01T03:28:12.356Z,69.09
2023-02-01T03:30:41.377Z,71.38
2023-02-01T03:33:23.167Z,71.85
2023-02-01T03:35:56.618Z,69.88
2023-02-01T03:38:50.128Z,68.56
2023-02-01T03:41:17.594Z,70.85
2023-02-01T03:43:59.392Z,71.37
2023-02-01T03:46:36.630Z,72.44
2023-02-01T03:49:06.352Z,69.87
2023-02-01T03:51:33.755Z,74.84
2023-02-01T03:54:01.077Z,70.49
2023-02-01T03:56:28.612Z,75.41
2023-02-01T03:59:00.157Z,71.15
2023-02-01T04:01:28.445Z,73.84
2023-02-01T04:03:56.824Z,69.87
2023-02-01T04:06:24.212Z,73.38
2023-02-01T04:08:51.749Z,70.23
2023-02-01T04:11:19.464Z,73.38
2023-02-01T04:13:46.679Z,72.54
2023-02-01T04:16:14.134Z,72.51
2023-02-01T04:18:41.604Z,73.60
2023-02-01T04:21:08.808Z,68.93
2023-02-01T04:23:39.809Z,68.13
2023-02-01T04:26:07.758Z,69.54
2023-02-01T04:28:35.001Z,73.63
2023-02-01T04:31:02.227Z,69.80
2023-02-01T04:33:29.702Z,70.29
2023-02-01T04:35:57.036Z,74.10
2023-02-01T04:38:24.283Z,74.28
2023-02-01T04:40:51.840Z,75.63
2023-02-01T04:43:19.223Z,72.43
2023-02-01T04:45:49.940Z,72.20
2023-02-01T04:48:18.241Z,70.45
2023-02-01T04:50:48.406Z,70.73
2023-02-01T04:53:16.044Z,71.76
2023-02-01T04:55:43.817Z,72.39
2023-02-01T04:58:11.118Z,71.44
2023-02-01T05:00:38.752Z,70.35
2023-02-01T05:03:06.282Z,71.74
2023-02-01T05:05:33.490Z,72.23
2023-02-01T05:08:00.684Z,68.81
2023-02-01T05:10:28.204Z,72.67
2023-02-01T05:13:14.142Z,72.63
2023-02-01T05:15:41.631Z,70.06
2023-02-01T05:18:08.809Z,67.50
2023-02-01T05:20:35.982Z,70.12
2023-02-01T05:23:03.517Z,68.96
2023-02-01T05:25:30.715Z,67.98
2023-02-01T05:27:57.888Z,68.31
2023-02-01T05:30:25.596Z,69.60
2023-02-01T05:32:53.281Z,68.27
2023-02-01T05:35:20.472Z,70.74
2023-02-01T05:37:47.988Z,72.24
2023-02-01T05:40:15.290Z,68.33
2023-02-01T05:42:42.461Z,70.35
2023-02-01T05:45:10.161Z,70.00
2023-02-01T05:47:37.439Z,70.46
2023-02-01T05:50:05.054Z,69.72
2023-02-01T05:52:32.443Z,69.52
2023-02-01T05:54:59.626Z,69.80
2023-02-01T05:57:26.765Z,72.99
2023-02-01T05:59:54.204Z,72.04
2023-02-01T06:02:22.768Z,74.14
2023-02-01T06:04:50.282Z,71.74
2023-02-01T06:07:17.489Z,68.97
2023-02-01T06:09:44.696Z,71.77
2023-02-01T06:12:13.287Z,73.42
2023-02-01T06:14:40.523Z,70.05
2023-02-01T06:17:07.984Z,74.12
2023-02-01T06:19:35.487Z,70.78
2023-02-01T06:22:02.673Z,69.51
2023-02-01T06:24:29.901Z,74.91
2023-02-01T06:26:57.361Z,72.73
2023-02-01T06:29:25.048Z,73.78
2023-02-01T06:31:52.526Z,71.37
2023-02-01T06:34:22.178Z,73.47
2023-02-01T06:36:49.645Z,68.73
2023-02-01T06:39:17.270Z,69.76
2023-02-01T06:41:48.417Z,69.81
2023-02-01T06:44:15.939Z,68.13
2023-02-01T06:46:43.270Z,68.67
2023-02-01T06:49:12.098Z,66.31
2023-02-01T06:51:39.346Z,68.32
2023-02-01T06:54:06.502Z,68.01
2023-02-01T06:56:34.069Z,67.38
2023-02-01T06:59:03.029Z,67.47
2023-02-01T07:01:30.197Z,68.44
2023-02-01T07:03:57.737Z,67.67
2023-02-01T07:06:24.967Z,67.26
2023-02-01T07:08:52.139Z,65.98
2023-02-01T07:11:19.936Z,67.21
2023-02-01T07:13:47.283Z,66.03
2023-02-01T07:16:15.652Z,67.22
2023-02-01T07:18:43.129Z,64.80
2023-02-01T07:21:10.442Z,70.91
2023-02-01T07:23:37.935Z,66.88
2023-02-01T07:26:06.355Z,66.29
2023-02-01T07:28:34.468Z,64.40
2023-02-01T07:31:08.937Z,63.67
2023-02-01T07:33:36.499Z,62.60
2023-02-01T07:36:04.442Z,65.28
2023-02-01T07:38:31.747Z,64.84
2023-02-01T07:41:00.463Z,63.14
2023-02-01T07:43:28.236Z,64.25
2023-02-01T07:45:55.617Z,69.10
2023-02-01T07:48:23.625Z,68.77
2023-02-01T07:50:57.971Z,65.46
2023-02-01T07:53:25.447Z,64.75
2023-02-01T07:55:52.599Z,69.23
2023-02-01T07:58:19.849Z,68.97
2023-02-01T08:01:06.379Z,68.68
2023-02-01T08:03:33.880Z,65.88
2023-02-01T08:06:01.094Z,67.49
2023-02-01T08:08:28.714Z,67.58
2023-02-01T08:10:59.663Z,64.26
2023-02-01T08:13:26.876Z,66.13
2023-02-01T08:15:54.011Z,67.58
2023-02-01T08:18:21.887Z,65.82
2023-02-01T08:20:49.108Z,67.05
2023-02-01T08:23:16.461Z,66.65
2023-02-01T08:25:44.308Z,67.06
2023-02-01T08:28:11.804Z,64.53
2023-02-01T08:30:39.698Z,65.55
2023-02-01T08:33:10.138Z,67.96
2023-02-01T08:35:43.937Z,69.15
2023-02-01T08:38:11.955Z,67.14
2023-02-01T08:40:39.257Z,64.92
2023-02-01T08:43:06.781Z,63.70
2023-02-01T08:45:34.683Z,65.99
2023-02-01T08:48:01.913Z,64.97
2023-02-01T08:50:29.317Z,62.96
2023-02-01T08:52:57.004Z,63.82
2023-02-01T08:55:26.225Z,65.20
2023-02-01T08:57:53.632Z,61.82
2023-02-01T09:00:21.730Z,61.97
2023-02-01T09:02:49.255Z,63.62
2023-02-01T09:05:19.276Z,61.62
2023-02-01T09:07:46.968Z,64.01
2023-02-01T09:10:15.797Z,63.92
2023-02-01T09:12:44.521Z,65.74
2023-02-01T09:15:12.299Z,61.64
2023-02-01T09:17:40.605Z,60.70
2023-02-01T09:20:08.015Z,64.35
2023-02-01T09:22:35.553Z,64.60
2023-02-01T09:25:03.024Z,64.66
2023-02-01T09:27:30.565Z,59.88
2023-02-01T09:29:58.773Z,59.43
2023-02-01T09:32:26.341Z,62.60
2023-02-01T09:34:53.903Z,62.43
2023-02-01T09:37:21.723Z,64.55
2023-02-01T09:39:49.267Z,63.31
2023-02-01T09:42:50.726Z,64.70
2023-02-01T09:45:21.535Z,65.77
2023-02-01T09:47:53.915Z,63.85
2023-02-01T09:50:24.789Z,63.49
2023-02-01T09:52:58.390Z,67.51
2023-02-01T09:55:47.725Z,68.39
2023-02-01T09:58:16.035Z,68.00
2023-02-01T10:00:53.211Z,68.29
2023-02-01T10:03:21.808Z,68.97
2023-02-01T10:06:01.395Z,64.08
2023-02-01T10:08:39.029Z,68.17
2023-02-01T10:11:32.555Z,60.79
2023-02-01T10:14:05.095Z,66.58
2023-02-01T10:16:42.132Z,64.46
2023-02-01T10:19:54.382Z,62.17
2023-02-01T10:23:05.009Z,60.47
2023-02-01T10:25:41.228Z,64.77
2023-02-01T10:28:14.383Z,64.95
2023-02-01T10:30:45.862Z,66.52
2023-02-01T10:33:35.740Z,65.87
2023-02-01T10:36:06.442Z,62.88
2023-02-01T10:38:34.589Z,64.00
2023-02-01T10:41:05.350Z,65.61
2023-02-01T10:43:35.010Z,67.77
2023-02-01T10:46:03.049Z,66.32
2023-02-01T10:48:31.213Z,67.41
2023-02-01T10:51:01.887Z,64.87
2023-02-01T10:53:40.647Z,62.77
2023-02-01T10:56:10.024Z,64.95
2023-02-01T10:58:45.032Z,64.96
2023-02-01T11:01:32.116Z,63.24
2023-02-01T11:04:02.003Z,64.43
2023-02-01T11:06:41.673Z,67.26
2023-02-01T11:09:09.010Z,62.98
2023-02-01T11:12:00.534Z,66.32
2023-02-01T11:14:35.213Z,67.37
2023-02-01T11:17:04.944Z,68.95
2023-02-01T11:19:32.572Z,68.62
2023-02-01T11:22:01.629Z,69.58
2023-02-01T11:24:34.452Z,70.61
2023-02-01T11:27:06.713Z,70.84
2023-02-01T11:29:40.250Z,68.97
2023-02-01T11:32:09.352Z,68.99
2023-02-01T11:34:40.280Z,68.34
2023-02-01T11:37:16.960Z,63.78
2023-02-01T11:39:57.569Z,66.79
2023-02-01T11:42:25.995Z,68.90
2023-02-01T11:45:29.944Z,68.90
2023-02-01T11:47:59.313Z,69.73
2023-02-01T11:50:56.143Z,72.62
2023-02-01T11:53:56.195Z,72.38
2023-02-01T11:56:34.739Z,70.48
2023-02-01T11:59:05.091Z,73.04
2023-02-01T12:01:36.823Z,74.14
2023-02-01T12:04:15.000Z,76.54
2023-02-01T12:06:52.956Z,78.33
2023-02-01T12:09:53.300Z,81.05
2023-02-01T12:12:26.938Z,81.25
2023-02-01T12:15:15.959Z,80.17
2023-02-01T12:18:02.107Z,83.10
2023-02-01T12:20:35.748Z,86.16
2023-02-01T12:23:15.099Z,87.11
2023-02-01T12:25:45.534Z,90.42
2023-02-01T12:28:19.017Z,90.99
2023-02-01T12:30:49.652Z,91.13
2023-02-01T12:33:16.974Z,89.34
2023-02-01T12:35:49.848Z,87.94
2023-02-01T12:38:21.103Z,89.91
2023-02-01T12:41:07.033Z,90.76
2023-02-01T12:43:39.622Z,89.23
2023-02-01T12:46:26.756Z,91.34
2023-02-01T12:48:58.857Z,91.52
2023-02-01T12:51:27.699Z,91.28
2023-02-01T12:53:56.584Z,90.77
2023-02-01T12:56:38.491Z,90.93
2023-02-01T12:59:07.678Z,91.24
2023-02-01T13:01:35.048Z,89.12
2023-02-01T13:04:20.513Z,88.55
2023-02-01T13:07:00.115Z,88.38
2023-02-01T13:09:33.097Z,88.84
2023-02-01T13:12:01.992Z,87.52
2023-02-01T13:14:32.662Z,87.90
2023-02-01T13:17:12.761Z,87.22
2023-02-01T13:19:55.727Z,87.14
2023-02-01T13:22:28.920Z,86.72
2023-02-01T13:24:56.463Z,87.33
2023-02-01T13:27:24.908Z,88.73
2023-02-01T13:29:54.274Z,88.04
2023-02-01T13:33:50.078Z,87.36
2023-02-01T13:35:41.171Z,84.81
2023-02-01T13:38:08.792Z,87.21
2023-02-01T13:40:39.008Z,88.37
2023-02-01T13:43:07.974Z,88.98
2023-02-01T13:45:36.213Z,89.47
2023-02-01T13:48:04.731Z,89.88
2023-02-01T13:50:35.034Z,90.40
2023-02-01T13:53:06.025Z,88.13
2023-02-01T13:55:34.503Z,89.76
2023-02-01T13:58:20.631Z,90.65
2023-02-01T14:00:48.936Z,90.82
2023-02-01T14:03:17.667Z,86.20
2023-02-01T14:05:44.900Z,86.91
2023-02-01T14:08:16.117Z,86.75
2023-02-01T14:10:48.420Z,87.82
2023-02-01T14:13:34.461Z,84.54
2023-02-01T14:16:05.687Z,87.12
2023-02-01T14:18:35.849Z,84.58
2023-02-01T14:21:23.712Z,85.82
2023-02-01T14:23:54.663Z,84.75
2023-02-01T14:26:22.994Z,85.35
2023-02-01T14:29:01.594Z,86.30
2023-02-01T14:31:32.452Z,85.32
2023-02-01T14:34:00.470Z,86.08
2023-02-01T14:36:27.759Z,86.54
2023-02-01T14:38:55.361Z,83.64
2023-02-01T14:41:26.658Z,85.56
2023-02-01T14:44:04.426Z,86.06
2023-02-01T14:46:51.682Z,86.72
2023-02-01T14:49:19.933Z,83.14
2023-02-01T14:51:47.697Z,82.02
2023-02-01T14:54:14.861Z,82.99
2023-02-01T14:56:42.202Z,82.67
2023-02-01T14:59:11.027Z,80.61
2023-02-01T15:01:40.112Z,79.64
2023-02-01T15:04:10.196Z,77.54
2023-02-01T15:06:44.360Z,75.35
2023-02-01T15:09:18.508Z,77.98
2023-02-01T15:11:58.433Z,78.44
2023-02-01T15:14:26.135Z,78.09
2023-02-01T15:16:57.082Z,72.79
2023-02-01T15:19:27.997Z,74.75
2023-02-01T15:21:56.415Z,77.68
2023-02-01T15:24:29.196Z,77.30
2023-02-01T15:26:57.117Z,76.24
2023-02-01T15:29:28.936Z,75.66
2023-02-01T15:31:56.568Z,75.75
2023-02-01T15:34:23.782Z,76.45
2023-02-01T15:37:02.581Z,73.12
2023-02-01T15:39:32.450Z,77.18
2023-02-01T15:42:05.317Z,77.16
2023-02-01T15:44:44.057Z,78.67
2023-02-01T15:47:16.559Z,77.25
2023-02-01T15:49:44.681Z,76.86
2023-02-01T15:52:17.473Z,77.34
2023-02-01T15:54:47.529Z,77.48
2023-02-01T15:57:15.958Z,76.97
2023-02-01T15:59:43.781Z,78.28
2023-02-01T16:02:26.715Z,76.40
2023-02-01T16:04:55.472Z,74.02
2023-02-01T16:07:28.207Z,74.91
2023-02-01T16:09:56.583Z,74.27
2023-02-01T16:12:36.742Z,71.70
2023-02-01T16:15:04.431Z,73.33
2023-02-01T16:17:31.946Z,72.77
2023-02-01T16:19:59.336Z,68.87
2023-02-01T16:22:27.242Z,69.87
2023-02-01T16:24:54.841Z,74.21
2023-02-01T16:27:23.337Z,76.08
2023-02-01T16:29:51.407Z,72.91
2023-02-01T16:32:19.975Z,75.03
2023-02-01T16:34:47.981Z,75.07
2023-02-01T16:37:17.496Z,67.42
2023-02-01T16:39:45.251Z,72.52
2023-02-01T16:42:13.563Z,74.05
2023-02-01T16:44:41.649Z,77.57
2023-02-01T16:47:13.917Z,79.81
2023-02-01T16:49:42.116Z,79.40
2023-02-01T16:52:13.266Z,78.67
2023-02-01T16:54:40.706Z,77.57
2023-02-01T16:57:12.400Z,79.04
2023-02-01T16:59:39.996Z,78.33
2023-02-01T17:02:11.363Z,77.53
2023-02-01T17:04:40.696Z,77.71
2023-02-01T17:07:12.312Z,77.06
2023-02-01T17:09:40.090Z,76.52
2023-02-01T17:12:08.403Z,77.33
2023-02-01T17:14:38.427Z,75.61
2023-02-01T17:17:08.567Z,77.21
2023-02-01T17:19:36.134Z,77.51
2023-02-01T17:22:03.911Z,76.91
2023-02-01T17:24:46.455Z,77.21
2023-02-01T17:27:16.760Z,77.22
2023-02-01T17:29:45.366Z,77.01
2023-02-01T17:32:17.226Z,77.11
2023-02-01T17:34:46.970Z,76.96
2023-02-01T17:37:31.575Z,75.92
2023-02-01T17:39:59.756Z,76.75
2023-02-01T17:42:28.883Z,76.12
2023-02-01T17:44:57.400Z,76.81
2023-02-01T17:47:27.572Z,75.99
2023-02-01T17:49:58.019Z,75.31
2023-02-01T17:52:26.349Z,75.85
2023-02-01T17:54:54.791Z,74.76
2023-02-01T17:57:22.411Z,76.20
2023-02-01T17:59:49.622Z,74.33
2023-02-01T18:02:24.165Z,73.70
2023-02-01T18:04:52.254Z,77.00
2023-02-01T18:07:19.695Z,76.17
2023-02-01T18:09:47.982Z,75.84
2023-02-01T18:12:19.822Z,74.87
2023-02-01T18:14:47.473Z,75.56
2023-02-01T18:17:16.872Z,76.52
2023-02-01T18:19:45.128Z,76.19
2023-02-01T18:22:15.710Z,74.63
2023-02-01T18:24:44.223Z,75.64
2023-02-01T18:27:12.840Z,74.65
2023-02-01T18:29:40.991Z,76.57
2023-02-01T18:32:09.798Z,76.10
2023-02-01T18:34:42.898Z,74.98
2023-02-01T18:37:11.319Z,75.21
2023-02-01T18:39:40.420Z,75.92
2023-02-01T18:42:10.502Z,75.05
2023-02-01T18:44:39.294Z,74.12
2023-02-01T18:47:08.313Z,75.49
2023-02-01T18:49:37.753Z,73.01
2023-02-01T18:52:07.013Z,75.80
2023-02-01T18:54:36.027Z,75.11
2023-02-01T18:57:04.695Z,77.71
2023-02-01T18:59:32.743Z,76.22
2023-02-01T19:02:01.500Z,76.81
2023-02-01T19:04:30.331Z,75.27
2023-02-01T19:07:00.461Z,74.27
2023-02-01T19:09:29.540Z,70.40
2023-02-01T19:11:57.083Z,72.55
2023-02-01T19:14:24.821Z,72.76
2023-02-01T19:16:55.311Z,74.65
2023-02-01T19:19:25.111Z,73.65
2023-02-01T19:21:55.413Z,71.98
2023-02-01T19:24:28.283Z,73.45
2023-02-01T19:26:57.424Z,71.94
2023-02-01T19:29:25.534Z,69.79
2023-02-01T19:31:54.064Z,69.18
2023-02-01T19:34:24.162Z,73.47
2023-02-01T19:36:53.136Z,74.83
2023-02-01T19:39:22.414Z,72.85
2023-02-01T19:41:52.770Z,69.87
2023-02-01T19:44:21.136Z,71.78
2023-02-01T19:46:49.723Z,70.37
2023-02-01T19:49:19.108Z,70.71
2023-02-01T19:51:49.259Z,70.15
2023-02-01T19:54:17.255Z,70.00
2023-02-01T19:56:46.545Z,70.73
2023-02-01T19:59:15.798Z,74.34
2023-02-01T20:01:47.016Z,74.77
2023-02-01T20:04:16.329Z,70.30
2023-02-01T20:06:49.435Z,70.24
2023-02-01T20:09:22.739Z,71.56
2023-02-01T20:11:51.007Z,73.12
2023-02-01T20:14:24.634Z,74.15
2023-02-01T20:16:52.709Z,75.54
2023-02-01T20:19:23.553Z,69.10
2023-02-01T20:21:52.716Z,69.82
2023-02-01T20:24:22.951Z,72.68
2023-02-01T20:26:53.158Z,74.16
2023-02-01T20:29:25.995Z,74.68
2023-02-01T20:31:54.809Z,75.56
2023-02-01T20:34:24.669Z,75.34
2023-02-01T20:36:53.152Z,75.02
2023-02-01T20:39:21.664Z,72.49
2023-02-01T20:41:50.296Z,73.41
2023-02-01T20:44:21.139Z,71.17
2023-02-01T20:46:49.717Z,72.59
2023-02-01T20:49:18.101Z,71.22
2023-02-01T20:51:46.561Z,76.64
2023-02-01T20:54:15.922Z,76.72
2023-02-01T20:56:45.462Z,76.59
2023-02-01T20:59:14.362Z,74.04
2023-02-01T21:01:52.121Z,76.29
2023-02-01T21:04:20.753Z,77.81
2023-02-01T21:06:49.977Z,77.96
2023-02-01T21:09:18.759Z,79.05
2023-02-01T21:11:46.675Z,85.38
2023-02-01T21:14:14.872Z,83.34
2023-02-01T21:16:42.453Z,83.92
2023-02-01T21:19:10.277Z,84.87
2023-02-01T21:21:38.494Z,85.59
2023-02-01T21:24:06.332Z,84.83
2023-02-01T21:26:42.444Z,86.23
2023-02-01T21:29:12.381Z,86.39
2023-02-01T21:31:40.541Z,85.98
2023-02-01T21:34:08.127Z,87.05
2023-02-01T21:36:35.928Z,87.06
2023-02-01T21:39:06.859Z,85.67
2023-02-01T21:41:53.580Z,87.20
2023-02-01T21:44:23.844Z,88.36
2023-02-01T21:46:51.131Z,88.76
2023-02-01T21:49:18.379Z,87.81
2023-02-01T21:51:46.162Z,88.40
2023-02-01T21:54:13.536Z,85.23
2023-02-01T21:56:40.953Z,88.07
2023-02-01T21:59:12.872Z,88.46
2023-02-01T22:01:40.482Z,87.62
2023-02-01T22:04:09.114Z,87.67
2023-02-01T22:06:38.408Z,88.47
2023-02-01T22:09:05.628Z,87.24
2023-02-01T22:11:33.215Z,85.68
2023-02-01T22:14:00.603Z,87.41
2023-02-01T22:16:27.835Z,87.07
2023-02-01T22:18:55.344Z,87.48
2023-02-01T22:21:24.105Z,85.73
2023-02-01T22:23:54.774Z,85.13
2023-02-01T22:26:22.488Z,85.91
2023-02-01T22:28:49.830Z,87.36
2023-02-01T22:31:17.592Z,86.08
2023-02-01T22:33:45.744Z,86.32
2023-02-01T22:36:13.175Z,85.55
2023-02-01T22:38:40.826Z,85.09
2023-02-01T22:41:08.603Z,85.89
2023-02-01T22:43:35.892Z,86.02
2023-02-01T22:46:04.152Z,85.81
2023-02-01T22:48:33.141Z,85.19
2023-02-01T22:51:00.533Z,84.09
2023-02-01T22:53:28.080Z,84.34
2023-02-01T22:56:05.309Z,85.67
2023-02-01T22:58:32.552Z,81.03
2023-02-01T23:01:09.729Z,82.21
2023-02-01T23:03:37.301Z,81.84
2023-02-01T23:06:05.970Z,81.91
2023-02-01T23:08:35.479Z,82.17
2023-02-01T23:11:04.240Z,82.76
2023-02-01T23:13:32.023Z,82.32
2023-02-01T23:15:59.367Z,81.22
2023-02-01T23:18:45.168Z,80.58
2023-02-01T23:21:13.945Z,79.87
2023-02-01T23:23:41.126Z,80.94
2023-02-01T23:26:08.322Z,80.02
2023-02-01T23:28:35.810Z,81.00
2023-02-01T23:31:07.200Z,80.75
2023-02-01T23:33:34.647Z,81.46
2023-02-01T23:36:02.764Z,79.35
2023-02-01T23:38:30.036Z,81.75
2023-02-01T23:41:02.076Z,81.95
2023-02-01T23:43:48.341Z,81.53
2023-02-01T23:46:15.899Z,83.11
2023-02-01T23:48:43.869Z,82.11
2023-02-01T23:51:11.308Z,82.53
2023-02-01T23:53:38.570Z,82.63
2023-02-01T23:56:06.459Z,81.16
2023-02-01T23:58:33.605Z,80.05
